sensor_id;sensor_type;location;lat;lon;timestamp;P1;durP1;ratioP1;P2;durP2;ratioP2
58468;SDS011;44257;44.804;10.220;2023-09-19T00:00:45;16.38;;;7.05;;
58468;SDS011;44257;44.804;10.220;2023-09-19T00:03:15;11.43;;;6.55;;
58468;SDS011;44257;44.804;10.220;2023-09-19T00:05:41;16.35;;;6.45;;
58468;SDS011;44257;44.804;10.220;2023-09-19T00:08:09;14.18;;;6.38;;
58468;SDS011;44257;44.804;10.220;2023-09-19T00:10:35;11.80;;;6.63;;
58468;SDS011;44257;44.804;10.220;2023-09-19T00:13:04;15.52;;;6.85;;
58468;SDS011;44257;44.804;10.220;2023-09-19T00:15:37;15.30;;;6.75;;
58468;SDS011;44257;44.804;10.220;2023-09-19T00:18:05;16.73;;;6.97;;
58468;SDS011;44257;44.804;10.220;2023-09-19T00:20:31;11.98;;;5.57;;
58468;SDS011;44257;44.804;10.220;2023-09-19T00:23:00;13.50;;;7.43;;
58468;SDS011;44257;44.804;10.220;2023-09-19T00:25:33;14.38;;;6.97;;
58468;SDS011;44257;44.804;10.220;2023-09-19T00:28:03;16.67;;;7.20;;
58468;SDS011;44257;44.804;10.220;2023-09-19T00:30:31;13.38;;;6.57;;
58468;SDS011;44257;44.804;10.220;2023-09-19T00:32:58;16.92;;;7.90;;
58468;SDS011;44257;44.804;10.220;2023-09-19T00:35:24;16.08;;;7.55;;
58468;SDS011;44257;44.804;10.220;2023-09-19T00:37:50;17.83;;;8.55;;
58468;SDS011;44257;44.804;10.220;2023-09-19T00:40:16;17.02;;;7.85;;
58468;SDS011;44257;44.804;10.220;2023-09-19T00:42:43;16.52;;;7.85;;
58468;SDS011;44257;44.804;10.220;2023-09-19T00:45:11;18.27;;;9.05;;
58468;SDS011;44257;44.804;10.220;2023-09-19T00:47:45;15.32;;;7.97;;
58468;SDS011;44257;44.804;10.220;2023-09-19T00:50:20;17.80;;;7.57;;
58468;SDS011;44257;44.804;10.220;2023-09-19T00:52:48;14.95;;;7.68;;
58468;SDS011;44257;44.804;10.220;2023-09-19T00:55:19;14.73;;;8.40;;
58468;SDS011;44257;44.804;10.220;2023-09-19T00:57:45;12.70;;;6.68;;
58468;SDS011;44257;44.804;10.220;2023-09-19T01:00:12;14.70;;;7.78;;
58468;SDS011;44257;44.804;10.220;2023-09-19T01:02:42;15.93;;;8.02;;
58468;SDS011;44257;44.804;10.220;2023-09-19T01:05:09;23.63;;;9.25;;
58468;SDS011;44257;44.804;10.220;2023-09-19T01:07:35;16.70;;;7.75;;
58468;SDS011;44257;44.804;10.220;2023-09-19T01:10:04;17.70;;;8.82;;
58468;SDS011;44257;44.804;10.220;2023-09-19T01:15:32;17.02;;;9.68;;
58468;SDS011;44257;44.804;10.220;2023-09-19T01:18:16;20.52;;;8.32;;
58468;SDS011;44257;44.804;10.220;2023-09-19T01:31:45;15.07;;;9.55;;
58468;SDS011;44257;44.804;10.220;2023-09-19T01:34:14;19.65;;;10.07;;
58468;SDS011;44257;44.804;10.220;2023-09-19T01:36:40;17.13;;;9.02;;
58468;SDS011;44257;44.804;10.220;2023-09-19T01:39:07;17.70;;;9.52;;
58468;SDS011;44257;44.804;10.220;2023-09-19T01:41:41;16.42;;;10.10;;
58468;SDS011;44257;44.804;10.220;2023-09-19T01:44:11;17.60;;;8.98;;
58468;SDS011;44257;44.804;10.220;2023-09-19T01:46:45;14.30;;;9.00;;
58468;SDS011;44257;44.804;10.220;2023-09-19T01:49:35;17.65;;;9.02;;
58468;SDS011;44257;44.804;10.220;2023-09-19T01:52:08;19.30;;;9.35;;
58468;SDS011;44257;44.804;10.220;2023-09-19T01:54:50;17.67;;;9.55;;
58468;SDS011;44257;44.804;10.220;2023-09-19T01:57:26;14.70;;;9.05;;
58468;SDS011;44257;44.804;10.220;2023-09-19T02:00:03;16.25;;;8.77;;
58468;SDS011;44257;44.804;10.220;2023-09-19T02:02:38;15.73;;;8.85;;
58468;SDS011;44257;44.804;10.220;2023-09-19T02:05:07;18.25;;;8.60;;
58468;SDS011;44257;44.804;10.220;2023-09-19T02:07:33;14.27;;;8.40;;
58468;SDS011;44257;44.804;10.220;2023-09-19T02:10:04;22.17;;;10.68;;
58468;SDS011;44257;44.804;10.220;2023-09-19T02:12:31;21.20;;;9.43;;
58468;SDS011;44257;44.804;10.220;2023-09-19T02:15:02;19.05;;;9.20;;
58468;SDS011;44257;44.804;10.220;2023-09-19T02:17:28;16.63;;;8.52;;
58468;SDS011;44257;44.804;10.220;2023-09-19T02:19:56;16.98;;;8.50;;
58468;SDS011;44257;44.804;10.220;2023-09-19T02:22:22;18.63;;;8.68;;
58468;SDS011;44257;44.804;10.220;2023-09-19T02:24:48;14.07;;;7.55;;
58468;SDS011;44257;44.804;10.220;2023-09-19T02:27:14;17.40;;;8.80;;
58468;SDS011;44257;44.804;10.220;2023-09-19T02:29:44;22.73;;;9.30;;
58468;SDS011;44257;44.804;10.220;2023-09-19T02:32:10;19.80;;;8.75;;
58468;SDS011;44257;44.804;10.220;2023-09-19T02:34:36;20.20;;;8.65;;
58468;SDS011;44257;44.804;10.220;2023-09-19T02:37:07;17.60;;;8.10;;
58468;SDS011;44257;44.804;10.220;2023-09-19T02:39:38;19.88;;;8.57;;
58468;SDS011;44257;44.804;10.220;2023-09-19T02:42:04;13.95;;;8.95;;
58468;SDS011;44257;44.804;10.220;2023-09-19T02:44:30;13.90;;;9.05;;
58468;SDS011;44257;44.804;10.220;2023-09-19T02:46:56;18.27;;;9.20;;
58468;SDS011;44257;44.804;10.220;2023-09-19T02:49:26;18.80;;;9.95;;
58468;SDS011;44257;44.804;10.220;2023-09-19T02:51:52;17.58;;;8.93;;
58468;SDS011;44257;44.804;10.220;2023-09-19T02:54:18;19.73;;;9.63;;
58468;SDS011;44257;44.804;10.220;2023-09-19T02:56:44;17.55;;;9.23;;
58468;SDS011;44257;44.804;10.220;2023-09-19T02:59:10;15.70;;;9.57;;
58468;SDS011;44257;44.804;10.220;2023-09-19T03:01:36;17.80;;;8.48;;
58468;SDS011;44257;44.804;10.220;2023-09-19T03:04:03;19.83;;;10.18;;
58468;SDS011;44257;44.804;10.220;2023-09-19T03:06:34;19.52;;;9.13;;
58468;SDS011;44257;44.804;10.220;2023-09-19T03:09:00;17.92;;;10.07;;
58468;SDS011;44257;44.804;10.220;2023-09-19T03:11:28;15.82;;;8.45;;
58468;SDS011;44257;44.804;10.220;2023-09-19T03:13:56;19.27;;;9.40;;
58468;SDS011;44257;44.804;10.220;2023-09-19T03:16:23;19.58;;;10.02;;
58468;SDS011;44257;44.804;10.220;2023-09-19T03:18:53;22.17;;;10.50;;
58468;SDS011;44257;44.804;10.220;2023-09-19T03:21:22;19.05;;;10.23;;
58468;SDS011;44257;44.804;10.220;2023-09-19T03:23:48;15.55;;;8.90;;
58468;SDS011;44257;44.804;10.220;2023-09-19T03:26:14;16.15;;;9.88;;
58468;SDS011;44257;44.804;10.220;2023-09-19T03:28:41;21.33;;;10.32;;
58468;SDS011;44257;44.804;10.220;2023-09-19T03:31:09;19.92;;;10.02;;
58468;SDS011;44257;44.804;10.220;2023-09-19T03:33:36;16.65;;;9.25;;
58468;SDS011;44257;44.804;10.220;2023-09-19T03:36:03;22.05;;;11.13;;
58468;SDS011;44257;44.804;10.220;2023-09-19T03:38:30;17.50;;;10.88;;
58468;SDS011;44257;44.804;10.220;2023-09-19T03:40:57;22.35;;;11.18;;
58468;SDS011;44257;44.804;10.220;2023-09-19T03:43:24;17.02;;;11.07;;
58468;SDS011;44257;44.804;10.220;2023-09-19T03:45:51;24.65;;;11.13;;
58468;SDS011;44257;44.804;10.220;2023-09-19T03:48:19;24.42;;;10.68;;
58468;SDS011;44257;44.804;10.220;2023-09-19T03:50:47;19.77;;;10.57;;
58468;SDS011;44257;44.804;10.220;2023-09-19T03:53:13;19.20;;;10.13;;
58468;SDS011;44257;44.804;10.220;2023-09-19T03:55:39;19.35;;;10.38;;
58468;SDS011;44257;44.804;10.220;2023-09-19T03:58:05;20.55;;;11.23;;
58468;SDS011;44257;44.804;10.220;2023-09-19T04:00:31;22.13;;;11.05;;
58468;SDS011;44257;44.804;10.220;2023-09-19T04:02:59;19.90;;;10.77;;
58468;SDS011;44257;44.804;10.220;2023-09-19T04:05:27;19.65;;;11.32;;
58468;SDS011;44257;44.804;10.220;2023-09-19T04:07:53;21.75;;;11.73;;
58468;SDS011;44257;44.804;10.220;2023-09-19T04:10:19;22.15;;;11.55;;
58468;SDS011;44257;44.804;10.220;2023-09-19T04:12:52;24.15;;;13.02;;
58468;SDS011;44257;44.804;10.220;2023-09-19T04:15:19;24.67;;;13.70;;
58468;SDS011;44257;44.804;10.220;2023-09-19T04:17:45;27.67;;;15.77;;
58468;SDS011;44257;44.804;10.220;2023-09-19T04:20:11;27.27;;;16.58;;
58468;SDS011;44257;44.804;10.220;2023-09-19T04:22:40;27.77;;;17.40;;
58468;SDS011;44257;44.804;10.220;2023-09-19T04:25:05;27.30;;;17.73;;
58468;SDS011;44257;44.804;10.220;2023-09-19T04:27:35;28.42;;;17.35;;
58468;SDS011;44257;44.804;10.220;2023-09-19T04:30:01;32.97;;;16.98;;
58468;SDS011;44257;44.804;10.220;2023-09-19T04:32:29;35.90;;;17.73;;
58468;SDS011;44257;44.804;10.220;2023-09-19T04:34:55;32.20;;;20.10;;
58468;SDS011;44257;44.804;10.220;2023-09-19T04:37:25;31.10;;;19.08;;
58468;SDS011;44257;44.804;10.220;2023-09-19T04:39:51;32.33;;;20.10;;
58468;SDS011;44257;44.804;10.220;2023-09-19T04:42:17;36.38;;;21.45;;
58468;SDS011;44257;44.804;10.220;2023-09-19T04:44:42;31.13;;;20.58;;
58468;SDS011;44257;44.804;10.220;2023-09-19T04:47:08;38.80;;;21.65;;
58468;SDS011;44257;44.804;10.220;2023-09-19T04:49:34;31.70;;;20.63;;
58468;SDS011;44257;44.804;10.220;2023-09-19T04:52:00;39.65;;;22.30;;
58468;SDS011;44257;44.804;10.220;2023-09-19T04:54:26;36.40;;;21.27;;
58468;SDS011;44257;44.804;10.220;2023-09-19T04:56:52;35.33;;;22.40;;
58468;SDS011;44257;44.804;10.220;2023-09-19T04:59:18;35.00;;;21.13;;
58468;SDS011;44257;44.804;10.220;2023-09-19T05:01:43;37.55;;;22.63;;
58468;SDS011;44257;44.804;10.220;2023-09-19T05:04:09;34.22;;;20.98;;
58468;SDS011;44257;44.804;10.220;2023-09-19T05:06:35;38.47;;;21.13;;
58468;SDS011;44257;44.804;10.220;2023-09-19T05:09:01;31.73;;;20.58;;
58468;SDS011;44257;44.804;10.220;2023-09-19T05:11:30;30.63;;;20.67;;
58468;SDS011;44257;44.804;10.220;2023-09-19T05:13:56;37.75;;;20.80;;
58468;SDS011;44257;44.804;10.220;2023-09-19T05:16:22;43.38;;;21.67;;
58468;SDS011;44257;44.804;10.220;2023-09-19T05:18:48;35.58;;;20.85;;
58468;SDS011;44257;44.804;10.220;2023-09-19T05:21:15;39.13;;;21.40;;
58468;SDS011;44257;44.804;10.220;2023-09-19T05:23:41;39.08;;;21.02;;
58468;SDS011;44257;44.804;10.220;2023-09-19T05:26:07;36.55;;;20.35;;
58468;SDS011;44257;44.804;10.220;2023-09-19T05:28:33;31.02;;;19.63;;
58468;SDS011;44257;44.804;10.220;2023-09-19T05:31:00;30.15;;;20.52;;
58468;SDS011;44257;44.804;10.220;2023-09-19T05:33:27;34.67;;;20.08;;
58468;SDS011;44257;44.804;10.220;2023-09-19T05:35:53;30.98;;;19.75;;
58468;SDS011;44257;44.804;10.220;2023-09-19T05:38:19;32.80;;;20.88;;
58468;SDS011;44257;44.804;10.220;2023-09-19T05:40:45;31.75;;;19.27;;
58468;SDS011;44257;44.804;10.220;2023-09-19T05:43:11;32.13;;;20.33;;
58468;SDS011;44257;44.804;10.220;2023-09-19T05:45:39;32.20;;;18.65;;
58468;SDS011;44257;44.804;10.220;2023-09-19T05:48:13;29.95;;;18.35;;
58468;SDS011;44257;44.804;10.220;2023-09-19T05:50:41;29.95;;;17.60;;
58468;SDS011;44257;44.804;10.220;2023-09-19T05:53:08;31.17;;;16.67;;
58468;SDS011;44257;44.804;10.220;2023-09-19T05:55:40;27.55;;;17.80;;
58468;SDS011;44257;44.804;10.220;2023-09-19T05:58:06;46.00;;;17.73;;
58468;SDS011;44257;44.804;10.220;2023-09-19T06:00:32;32.28;;;19.13;;
58468;SDS011;44257;44.804;10.220;2023-09-19T06:02:58;32.00;;;17.98;;
58468;SDS011;44257;44.804;10.220;2023-09-19T06:05:25;39.35;;;16.90;;
58468;SDS011;44257;44.804;10.220;2023-09-19T06:07:57;25.77;;;16.58;;
58468;SDS011;44257;44.804;10.220;2023-09-19T06:10:26;28.80;;;16.85;;
58468;SDS011;44257;44.804;10.220;2023-09-19T06:12:57;30.02;;;18.33;;
58468;SDS011;44257;44.804;10.220;2023-09-19T06:15:23;26.02;;;16.42;;
58468;SDS011;44257;44.804;10.220;2023-09-19T06:17:53;34.40;;;17.75;;
58468;SDS011;44257;44.804;10.220;2023-09-19T06:20:20;27.92;;;18.70;;
58468;SDS011;44257;44.804;10.220;2023-09-19T06:22:48;31.35;;;19.88;;
58468;SDS011;44257;44.804;10.220;2023-09-19T06:25:15;30.85;;;20.45;;
58468;SDS011;44257;44.804;10.220;2023-09-19T06:27:45;33.38;;;19.92;;
58468;SDS011;44257;44.804;10.220;2023-09-19T06:30:11;32.30;;;20.67;;
58468;SDS011;44257;44.804;10.220;2023-09-19T06:32:38;32.47;;;20.75;;
58468;SDS011;44257;44.804;10.220;2023-09-19T06:35:05;33.85;;;21.40;;
58468;SDS011;44257;44.804;10.220;2023-09-19T06:37:36;33.80;;;22.52;;
58468;SDS011;44257;44.804;10.220;2023-09-19T06:40:07;38.20;;;22.95;;
58468;SDS011;44257;44.804;10.220;2023-09-19T06:42:42;35.20;;;22.27;;
58468;SDS011;44257;44.804;10.220;2023-09-19T06:45:12;30.27;;;21.42;;
58468;SDS011;44257;44.804;10.220;2023-09-19T06:47:43;33.92;;;23.08;;
58468;SDS011;44257;44.804;10.220;2023-09-19T06:50:11;35.70;;;21.92;;
58468;SDS011;44257;44.804;10.220;2023-09-19T06:52:41;36.85;;;22.33;;
58468;SDS011;44257;44.804;10.220;2023-09-19T06:55:07;30.13;;;20.35;;
58468;SDS011;44257;44.804;10.220;2023-09-19T06:57:34;45.72;;;21.08;;
58468;SDS011;44257;44.804;10.220;2023-09-19T07:00:01;32.58;;;19.67;;
58468;SDS011;44257;44.804;10.220;2023-09-19T07:02:27;34.10;;;20.77;;
58468;SDS011;44257;44.804;10.220;2023-09-19T07:04:53;27.05;;;18.58;;
58468;SDS011;44257;44.804;10.220;2023-09-19T07:07:18;32.45;;;18.88;;
58468;SDS011;44257;44.804;10.220;2023-09-19T07:09:44;31.63;;;18.75;;
58468;SDS011;44257;44.804;10.220;2023-09-19T07:12:12;28.85;;;16.83;;
58468;SDS011;44257;44.804;10.220;2023-09-19T07:14:39;25.80;;;16.35;;
58468;SDS011;44257;44.804;10.220;2023-09-19T07:17:05;24.02;;;15.68;;
58468;SDS011;44257;44.804;10.220;2023-09-19T07:19:31;18.80;;;13.40;;
58468;SDS011;44257;44.804;10.220;2023-09-19T07:21:57;22.40;;;15.63;;
58468;SDS011;44257;44.804;10.220;2023-09-19T07:24:24;23.40;;;14.00;;
58468;SDS011;44257;44.804;10.220;2023-09-19T07:26:52;22.08;;;14.23;;
58468;SDS011;44257;44.804;10.220;2023-09-19T07:29:18;20.25;;;13.13;;
58468;SDS011;44257;44.804;10.220;2023-09-19T07:31:44;24.90;;;14.15;;
58468;SDS011;44257;44.804;10.220;2023-09-19T07:34:10;19.48;;;12.60;;
58468;SDS011;44257;44.804;10.220;2023-09-19T07:36:36;22.77;;;12.95;;
58468;SDS011;44257;44.804;10.220;2023-09-19T07:39:03;17.45;;;11.93;;
58468;SDS011;44257;44.804;10.220;2023-09-19T07:41:32;21.95;;;12.20;;
58468;SDS011;44257;44.804;10.220;2023-09-19T07:43:59;29.90;;;14.48;;
58468;SDS011;44257;44.804;10.220;2023-09-19T07:46:25;22.15;;;12.85;;
58468;SDS011;44257;44.804;10.220;2023-09-19T07:48:51;17.65;;;11.00;;
58468;SDS011;44257;44.804;10.220;2023-09-19T07:51:17;19.67;;;12.60;;
58468;SDS011;44257;44.804;10.220;2023-09-19T07:53:44;19.45;;;11.65;;
58468;SDS011;44257;44.804;10.220;2023-09-19T07:56:09;17.65;;;11.68;;
58468;SDS011;44257;44.804;10.220;2023-09-19T07:58:35;21.30;;;11.75;;
58468;SDS011;44257;44.804;10.220;2023-09-19T08:01:08;18.13;;;12.88;;
58468;SDS011;44257;44.804;10.220;2023-09-19T08:03:35;25.90;;;12.82;;
58468;SDS011;44257;44.804;10.220;2023-09-19T08:06:09;17.23;;;12.20;;
58468;SDS011;44257;44.804;10.220;2023-09-19T08:08:35;18.10;;;11.65;;
58468;SDS011;44257;44.804;10.220;2023-09-19T08:11:03;19.08;;;12.18;;
58468;SDS011;44257;44.804;10.220;2023-09-19T08:13:36;21.35;;;12.23;;
58468;SDS011;44257;44.804;10.220;2023-09-19T08:16:03;21.40;;;13.20;;
58468;SDS011;44257;44.804;10.220;2023-09-19T08:18:30;20.08;;;12.05;;
58468;SDS011;44257;44.804;10.220;2023-09-19T08:20:56;16.42;;;12.55;;
58468;SDS011;44257;44.804;10.220;2023-09-19T08:23:24;21.13;;;14.02;;
58468;SDS011;44257;44.804;10.220;2023-09-19T08:25:49;22.00;;;13.75;;
58468;SDS011;44257;44.804;10.220;2023-09-19T08:28:15;18.50;;;10.77;;
58468;SDS011;44257;44.804;10.220;2023-09-19T08:30:47;17.20;;;10.85;;
58468;SDS011;44257;44.804;10.220;2023-09-19T08:33:13;19.88;;;11.00;;
58468;SDS011;44257;44.804;10.220;2023-09-19T08:35:40;22.15;;;13.38;;
58468;SDS011;44257;44.804;10.220;2023-09-19T08:38:08;26.70;;;14.43;;
58468;SDS011;44257;44.804;10.220;2023-09-19T08:40:39;23.05;;;15.15;;
58468;SDS011;44257;44.804;10.220;2023-09-19T08:43:07;24.00;;;16.70;;
58468;SDS011;44257;44.804;10.220;2023-09-19T08:45:33;22.85;;;16.70;;
58468;SDS011;44257;44.804;10.220;2023-09-19T08:50:43;29.52;;;17.75;;
58468;SDS011;44257;44.804;10.220;2023-09-19T08:53:26;27.77;;;17.52;;
58468;SDS011;44257;44.804;10.220;2023-09-19T08:56:03;27.77;;;19.45;;
58468;SDS011;44257;44.804;10.220;2023-09-19T08:58:34;63.70;;;20.95;;
58468;SDS011;44257;44.804;10.220;2023-09-19T09:01:10;26.08;;;18.52;;
58468;SDS011;44257;44.804;10.220;2023-09-19T09:03:39;32.25;;;17.65;;
58468;SDS011;44257;44.804;10.220;2023-09-19T09:06:08;22.33;;;16.05;;
58468;SDS011;44257;44.804;10.220;2023-09-19T09:08:36;39.92;;;16.33;;
58468;SDS011;44257;44.804;10.220;2023-09-19T09:11:05;25.40;;;11.77;;
58468;SDS011;44257;44.804;10.220;2023-09-19T09:13:34;19.63;;;12.13;;
58468;SDS011;44257;44.804;10.220;2023-09-19T09:16:01;22.92;;;12.10;;
58468;SDS011;44257;44.804;10.220;2023-09-19T09:18:28;24.73;;;17.00;;
58468;SDS011;44257;44.804;10.220;2023-09-19T09:20:55;33.38;;;19.20;;
58468;SDS011;44257;44.804;10.220;2023-09-19T09:23:21;28.45;;;18.35;;
58468;SDS011;44257;44.804;10.220;2023-09-19T09:25:50;59.55;;;20.15;;
58468;SDS011;44257;44.804;10.220;2023-09-19T09:28:33;31.42;;;17.33;;
58468;SDS011;44257;44.804;10.220;2023-09-19T09:31:00;24.45;;;16.10;;
58468;SDS011;44257;44.804;10.220;2023-09-19T09:33:34;23.77;;;16.17;;
58468;SDS011;44257;44.804;10.220;2023-09-19T09:36:03;30.70;;;19.55;;
58468;SDS011;44257;44.804;10.220;2023-09-19T09:38:44;31.70;;;18.27;;
58468;SDS011;44257;44.804;10.220;2023-09-19T09:41:11;27.95;;;18.35;;
58468;SDS011;44257;44.804;10.220;2023-09-19T09:43:42;24.35;;;18.08;;
58468;SDS011;44257;44.804;10.220;2023-09-19T09:46:17;29.00;;;20.92;;
58468;SDS011;44257;44.804;10.220;2023-09-19T09:48:47;37.30;;;23.45;;
58468;SDS011;44257;44.804;10.220;2023-09-19T09:51:43;28.27;;;20.60;;
58468;SDS011;44257;44.804;10.220;2023-09-19T09:56:53;28.42;;;20.50;;
58468;SDS011;44257;44.804;10.220;2023-09-19T09:59:20;29.27;;;18.27;;
58468;SDS011;44257;44.804;10.220;2023-09-19T10:01:49;25.58;;;18.65;;
58468;SDS011;44257;44.804;10.220;2023-09-19T10:04:28;25.92;;;18.73;;
58468;SDS011;44257;44.804;10.220;2023-09-19T10:06:56;27.47;;;19.80;;
58468;SDS011;44257;44.804;10.220;2023-09-19T10:09:22;24.73;;;17.15;;
58468;SDS011;44257;44.804;10.220;2023-09-19T10:12:25;28.80;;;17.67;;
58468;SDS011;44257;44.804;10.220;2023-09-19T10:14:46;23.80;;;16.60;;
58468;SDS011;44257;44.804;10.220;2023-09-19T10:17:15;25.13;;;16.95;;
58468;SDS011;44257;44.804;10.220;2023-09-19T10:19:54;24.60;;;17.20;;
58468;SDS011;44257;44.804;10.220;2023-09-19T10:22:23;23.23;;;15.73;;
58468;SDS011;44257;44.804;10.220;2023-09-19T10:24:52;26.48;;;18.85;;
58468;SDS011;44257;44.804;10.220;2023-09-19T10:27:20;30.10;;;19.40;;
58468;SDS011;44257;44.804;10.220;2023-09-19T10:29:51;27.85;;;18.85;;
58468;SDS011;44257;44.804;10.220;2023-09-19T10:32:21;24.02;;;16.98;;
58468;SDS011;44257;44.804;10.220;2023-09-19T10:34:48;26.98;;;17.65;;
58468;SDS011;44257;44.804;10.220;2023-09-19T10:37:18;25.90;;;16.50;;
58468;SDS011;44257;44.804;10.220;2023-09-19T10:39:47;21.38;;;14.70;;
58468;SDS011;44257;44.804;10.220;2023-09-19T10:42:16;22.85;;;14.65;;
58468;SDS011;44257;44.804;10.220;2023-09-19T10:44:46;22.20;;;16.57;;
58468;SDS011;44257;44.804;10.220;2023-09-19T10:47:19;22.67;;;14.45;;
58468;SDS011;44257;44.804;10.220;2023-09-19T10:49:45;19.83;;;13.77;;
58468;SDS011;44257;44.804;10.220;2023-09-19T10:52:16;20.90;;;13.40;;
58468;SDS011;44257;44.804;10.220;2023-09-19T10:54:47;19.25;;;13.77;;
58468;SDS011;44257;44.804;10.220;2023-09-19T10:57:21;23.40;;;15.85;;
58468;SDS011;44257;44.804;10.220;2023-09-19T11:00:05;25.25;;;15.70;;
58468;SDS011;44257;44.804;10.220;2023-09-19T11:05:37;22.83;;;14.02;;
58468;SDS011;44257;44.804;10.220;2023-09-19T11:08:09;25.17;;;16.55;;
58468;SDS011;44257;44.804;10.220;2023-09-19T11:13:30;25.20;;;15.48;;
58468;SDS011;44257;44.804;10.220;2023-09-19T11:16:04;21.98;;;15.35;;
58468;SDS011;44257;44.804;10.220;2023-09-19T11:26:47;22.20;;;15.55;;
58468;SDS011;44257;44.804;10.220;2023-09-19T11:29:29;25.98;;;13.13;;
58468;SDS011;44257;44.804;10.220;2023-09-19T11:31:57;24.15;;;14.60;;
58468;SDS011;44257;44.804;10.220;2023-09-19T11:37:59;22.88;;;13.25;;
58468;SDS011;44257;44.804;10.220;2023-09-19T11:40:07;19.98;;;13.25;;
58468;SDS011;44257;44.804;10.220;2023-09-19T11:42:45;21.20;;;14.02;;
58468;SDS011;44257;44.804;10.220;2023-09-19T11:48:23;22.93;;;13.10;;
58468;SDS011;44257;44.804;10.220;2023-09-19T11:50:52;31.13;;;13.77;;
58468;SDS011;44257;44.804;10.220;2023-09-19T11:53:18;29.70;;;12.98;;
58468;SDS011;44257;44.804;10.220;2023-09-19T11:55:45;19.55;;;12.52;;
58468;SDS011;44257;44.804;10.220;2023-09-19T11:58:17;23.88;;;12.02;;
58468;SDS011;44257;44.804;10.220;2023-09-19T12:00:45;20.80;;;10.65;;
58468;SDS011;44257;44.804;10.220;2023-09-19T12:03:12;43.40;;;13.73;;
58468;SDS011;44257;44.804;10.220;2023-09-19T12:05:40;37.90;;;12.23;;
58468;SDS011;44257;44.804;10.220;2023-09-19T12:08:09;28.15;;;12.52;;
58468;SDS011;44257;44.804;10.220;2023-09-19T12:10:47;22.85;;;13.10;;
58468;SDS011;44257;44.804;10.220;2023-09-19T12:13:18;18.70;;;12.88;;
58468;SDS011;44257;44.804;10.220;2023-09-19T12:15:44;18.92;;;13.18;;
58468;SDS011;44257;44.804;10.220;2023-09-19T12:18:29;19.83;;;12.20;;
58468;SDS011;44257;44.804;10.220;2023-09-19T12:20:55;23.45;;;12.07;;
58468;SDS011;44257;44.804;10.220;2023-09-19T12:23:22;16.60;;;11.10;;
58468;SDS011;44257;44.804;10.220;2023-09-19T12:25:48;17.83;;;11.25;;
58468;SDS011;44257;44.804;10.220;2023-09-19T12:28:18;17.75;;;10.10;;
58468;SDS011;44257;44.804;10.220;2023-09-19T12:30:47;17.23;;;10.25;;
58468;SDS011;44257;44.804;10.220;2023-09-19T12:33:19;25.42;;;11.63;;
58468;SDS011;44257;44.804;10.220;2023-09-19T12:35:46;15.20;;;9.57;;
58468;SDS011;44257;44.804;10.220;2023-09-19T12:38:27;23.45;;;11.05;;
58468;SDS011;44257;44.804;10.220;2023-09-19T12:40:57;31.50;;;12.02;;
58468;SDS011;44257;44.804;10.220;2023-09-19T12:43:30;23.02;;;12.30;;
58468;SDS011;44257;44.804;10.220;2023-09-19T12:48:25;31.33;;;12.10;;
58468;SDS011;44257;44.804;10.220;2023-09-19T12:51:00;18.35;;;10.48;;
58468;SDS011;44257;44.804;10.220;2023-09-19T12:53:33;17.45;;;9.77;;
58468;SDS011;44257;44.804;10.220;2023-09-19T12:56:03;19.52;;;10.25;;
58468;SDS011;44257;44.804;10.220;2023-09-19T12:58:32;49.67;;;13.52;;
58468;SDS011;44257;44.804;10.220;2023-09-19T13:01:00;15.68;;;9.35;;
58468;SDS011;44257;44.804;10.220;2023-09-19T13:03:27;17.98;;;10.05;;
58468;SDS011;44257;44.804;10.220;2023-09-19T13:06:01;17.17;;;11.18;;
58468;SDS011;44257;44.804;10.220;2023-09-19T13:13:27;23.60;;;10.02;;
58468;SDS011;44257;44.804;10.220;2023-09-19T13:15:54;16.50;;;9.70;;
58468;SDS011;44257;44.804;10.220;2023-09-19T13:18:23;15.02;;;7.95;;
58468;SDS011;44257;44.804;10.220;2023-09-19T13:21:06;15.43;;;8.57;;
58468;SDS011;44257;44.804;10.220;2023-09-19T13:23:43;15.45;;;8.23;;
58468;SDS011;44257;44.804;10.220;2023-09-19T13:26:11;16.50;;;8.80;;
58468;SDS011;44257;44.804;10.220;2023-09-19T13:28:37;18.90;;;9.45;;
58468;SDS011;44257;44.804;10.220;2023-09-19T13:31:04;16.63;;;8.80;;
58468;SDS011;44257;44.804;10.220;2023-09-19T13:33:30;28.45;;;10.90;;
58468;SDS011;44257;44.804;10.220;2023-09-19T13:35:57;14.45;;;9.32;;
58468;SDS011;44257;44.804;10.220;2023-09-19T13:38:23;58.63;;;13.48;;
58468;SDS011;44257;44.804;10.220;2023-09-19T13:40:49;29.55;;;10.13;;
58468;SDS011;44257;44.804;10.220;2023-09-19T13:43:17;15.80;;;8.73;;
58468;SDS011;44257;44.804;10.220;2023-09-19T13:45:43;15.90;;;8.40;;
58468;SDS011;44257;44.804;10.220;2023-09-19T13:48:09;18.48;;;9.35;;
58468;SDS011;44257;44.804;10.220;2023-09-19T13:50:36;16.67;;;8.52;;
58468;SDS011;44257;44.804;10.220;2023-09-19T13:53:07;20.65;;;8.50;;
58468;SDS011;44257;44.804;10.220;2023-09-19T13:55:33;13.15;;;8.02;;
58468;SDS011;44257;44.804;10.220;2023-09-19T13:57:59;22.05;;;9.43;;
58468;SDS011;44257;44.804;10.220;2023-09-19T14:00:25;14.65;;;8.13;;
58468;SDS011;44257;44.804;10.220;2023-09-19T14:02:52;20.80;;;8.30;;
58468;SDS011;44257;44.804;10.220;2023-09-19T14:05:18;16.70;;;8.10;;
58468;SDS011;44257;44.804;10.220;2023-09-19T14:07:45;12.15;;;7.65;;
58468;SDS011;44257;44.804;10.220;2023-09-19T14:10:11;16.02;;;8.50;;
58468;SDS011;44257;44.804;10.220;2023-09-19T14:12:37;14.57;;;7.80;;
58468;SDS011;44257;44.804;10.220;2023-09-19T14:15:06;17.10;;;7.03;;
58468;SDS011;44257;44.804;10.220;2023-09-19T14:17:33;18.45;;;7.95;;
58468;SDS011;44257;44.804;10.220;2023-09-19T14:19:59;12.95;;;7.63;;
58468;SDS011;44257;44.804;10.220;2023-09-19T14:22:25;16.75;;;7.70;;
58468;SDS011;44257;44.804;10.220;2023-09-19T14:24:51;16.60;;;6.80;;
58468;SDS011;44257;44.804;10.220;2023-09-19T14:27:18;13.93;;;7.15;;
58468;SDS011;44257;44.804;10.220;2023-09-19T14:29:44;14.30;;;7.57;;
58468;SDS011;44257;44.804;10.220;2023-09-19T14:32:10;10.68;;;6.90;;
58468;SDS011;44257;44.804;10.220;2023-09-19T14:34:36;10.80;;;7.10;;
58468;SDS011;44257;44.804;10.220;2023-09-19T14:37:07;13.75;;;6.95;;
58468;SDS011;44257;44.804;10.220;2023-09-19T14:39:33;12.55;;;7.10;;
58468;SDS011;44257;44.804;10.220;2023-09-19T14:41:59;13.27;;;6.65;;
58468;SDS011;44257;44.804;10.220;2023-09-19T14:44:25;11.60;;;6.90;;
58468;SDS011;44257;44.804;10.220;2023-09-19T14:46:51;13.60;;;7.22;;
58468;SDS011;44257;44.804;10.220;2023-09-19T14:49:17;15.50;;;7.35;;
58468;SDS011;44257;44.804;10.220;2023-09-19T14:51:42;12.77;;;7.60;;
58468;SDS011;44257;44.804;10.220;2023-09-19T14:54:12;13.60;;;7.15;;
58468;SDS011;44257;44.804;10.220;2023-09-19T14:56:38;11.48;;;7.85;;
58468;SDS011;44257;44.804;10.220;2023-09-19T14:59:04;13.00;;;6.97;;
58468;SDS011;44257;44.804;10.220;2023-09-19T15:01:32;16.00;;;7.18;;
58468;SDS011;44257;44.804;10.220;2023-09-19T15:03:57;14.32;;;7.60;;
58468;SDS011;44257;44.804;10.220;2023-09-19T15:06:26;14.52;;;7.53;;
58468;SDS011;44257;44.804;10.220;2023-09-19T15:08:51;16.83;;;7.47;;